WXM80 ListenWXM80 Stop

You find our weather info also at:

UK Metoffice

WeatherCloud

Weather Underground

Northeastern Weather Network

AWEKAS

Citizen Weather Observer Program (CWOP)

HAMweather, WeatherForYou, PWS Weather


Weather Underground History page Text

Daily Summary for June 11, 2017 Units:  English    Metric   Both
« Previous Day
Next Day »
Daily Weekly Monthly Yearly Custom
  High: Low: Average:
Temperature: 95.4 °F 68.9 °F 80.7 °F
Dew Point: 70.7 °F 62.6 °F 65.9 °F
Humidity: 82 % 39 % 63 %
Wind Speed: 8.3 mph 0.0 mph 2 mph
Wind Gust: 17.3 mph - -
Wind:- - SW
Pressure: 30.03 in 29.92 in -
Precipitation: 0.00 in    
Historical Graphs
 
 
Tabular Data for June 11, 2017
Time Temperature Dew Point Pressure Wind Wind Speed Wind Gust Humidity Rainfall Rate (Hourly)
00:04 71.5 °F 62.8 °F 29.98 in SW 2.4 mph 3.5 mph 74 % 0.00 in
00:14 71.4 °F 62.7 °F 29.98 in SSW 3.9 mph 4.6 mph 74 % 0.00 in
00:15 71.4 °F 62.7 °F 29.98 in West 0.9 mph 4.6 mph 74 % 0.00 in
00:20 71.4 °F 63.1 °F 29.98 in West 1.6 mph 3.5 mph 75 % 0.00 in
00:25 71.3 °F 63.0 °F 29.98 in South 2.4 mph 3.5 mph 75 % 0.00 in
00:30 71.3 °F 63.0 °F 29.98 in SW 2.2 mph 3.5 mph 75 % 0.00 in
00:35 71.2 °F 62.9 °F 29.98 in West 0.9 mph 3.5 mph 75 % 0.00 in
00:40 71.2 °F 62.9 °F 29.98 in WSW 0.9 mph 5.8 mph 75 % 0.00 in
00:45 71.1 °F 62.8 °F 29.98 in WSW 3.3 mph 4.6 mph 75 % 0.00 in
00:50 71.0 °F 63.1 °F 29.98 in SW 0.7 mph 4.6 mph 76 % 0.00 in
00:55 70.9 °F 63.0 °F 29.98 in SW 1.4 mph 3.5 mph 76 % 0.00 in
01:00 70.9 °F 63.0 °F 29.98 in SW 1.1 mph 4.0 mph 76 % 0.00 in
01:05 70.8 °F 62.9 °F 29.98 in WSW 1.8 mph 4.0 mph 76 % 0.00 in
01:10 70.8 °F 62.9 °F 29.98 in WSW 2.1 mph 3.5 mph 76 % 0.00 in
01:15 70.7 °F 62.8 °F 29.98 in West 1.6 mph 4.6 mph 76 % 0.00 in
01:20 70.7 °F 62.8 °F 29.98 in WSW 2.5 mph 3.5 mph 76 % 0.00 in
01:25 70.6 °F 62.7 °F 29.98 in SW 1.3 mph 3.5 mph 76 % 0.00 in
01:30 70.6 °F 62.7 °F 29.99 in WSW 1.7 mph 3.5 mph 76 % 0.00 in
01:36 70.6 °F 62.7 °F 29.99 in SSW 1.3 mph 4.0 mph 76 % 0.00 in
01:41 70.6 °F 62.7 °F 29.99 in WSW 2.6 mph 3.5 mph 76 % 0.00 in
01:46 70.5 °F 62.6 °F 29.99 in SW 2.0 mph 3.5 mph 76 % 0.00 in
01:51 70.5 °F 62.6 °F 29.99 in SW 2.6 mph 6.9 mph 76 % 0.00 in
01:56 70.5 °F 62.6 °F 29.99 in SW 1.0 mph 4.0 mph 76 % 0.00 in
02:01 70.5 °F 62.6 °F 29.99 in WSW 0.7 mph 4.6 mph 76 % 0.00 in
02:06 70.5 °F 62.6 °F 29.99 in SW 5.0 mph 12.0 mph 76 % 0.00 in
02:11 70.6 °F 62.7 °F 29.99 in SW 5.0 mph 7.0 mph 76 % 0.00 in
02:12 70.6 °F 62.7 °F 29.99 in SSW 2.8 mph 4.6 mph 76 % 0.00 in
02:18 70.6 °F 62.7 °F 29.99 in SW 1.6 mph 3.5 mph 76 % 0.00 in
02:23 70.6 °F 62.7 °F 29.99 in WSW 1.7 mph 3.5 mph 76 % 0.00 in
02:28 70.7 °F 62.8 °F 29.99 in SW 3.8 mph 8.1 mph 76 % 0.00 in
02:33 70.7 °F 62.8 °F 29.99 in Calm   5.8 mph 76 % 0.00 in
02:38 70.7 °F 62.8 °F 29.99 in SW 0.2 mph 1.2 mph 76 % 0.00 in
02:43 70.6 °F 63.0 °F 29.99 in SW 2.3 mph 5.8 mph 77 % 0.00 in
02:48 70.6 °F 63.0 °F 29.99 in SW 2.9 mph 4.6 mph 77 % 0.00 in
02:53 70.6 °F 63.0 °F 29.98 in SSW 1.0 mph 4.6 mph 77 % 0.00 in
02:58 70.6 °F 63.0 °F 29.98 in SSW 0.4 mph 2.3 mph 77 % 0.00 in
03:03 70.5 °F 62.9 °F 29.98 in WSW 2.0 mph 3.5 mph 77 % 0.00 in
03:08 70.5 °F 62.9 °F 29.98 in SSW 1.3 mph 3.5 mph 77 % 0.00 in
03:13 70.5 °F 62.9 °F 29.98 in SW 1.4 mph 3.5 mph 77 % 0.00 in
03:18 70.4 °F 63.2 °F 29.98 in WSW 0.8 mph 3.5 mph 78 % 0.00 in
03:23 70.4 °F 63.2 °F 29.98 in SW 3.9 mph 5.8 mph 78 % 0.00 in
03:28 70.4 °F 63.2 °F 29.98 in WSW 1.5 mph 3.5 mph 78 % 0.00 in
03:33 70.4 °F 63.2 °F 29.98 in WSW 1.8 mph 3.5 mph 78 % 0.00 in
03:38 70.4 °F 63.2 °F 29.98 in SSE 0.5 mph 2.3 mph 78 % 0.00 in
03:43 70.3 °F 63.1 °F 29.98 in SW 0.2 mph 1.2 mph 78 % 0.00 in
03:48 70.3 °F 63.1 °F 29.98 in SW 0.9 mph 2.3 mph 78 % 0.00 in
03:53 70.2 °F 63.0 °F 29.98 in SW 1.9 mph 3.5 mph 78 % 0.00 in
03:58 70.1 °F 62.9 °F 29.98 in SW 1.7 mph 2.3 mph 78 % 0.00 in
04:03 70.1 °F 62.9 °F 29.98 in WSW 2.6 mph 4.0 mph 78 % 0.00 in
04:08 70.0 °F 63.2 °F 29.98 in WSW 3.8 mph 4.6 mph 79 % 0.00 in
04:13 69.9 °F 63.1 °F 29.98 in SSW 1.9 mph 4.0 mph 79 % 0.00 in
04:18 69.9 °F 63.1 °F 29.98 in SW 2.4 mph 3.5 mph 79 % 0.00 in
04:24 69.8 °F 63.0 °F 29.98 in SW 2.8 mph 5.8 mph 79 % 0.00 in
04:29 69.8 °F 63.0 °F 29.98 in SSW 3.6 mph 4.6 mph 79 % 0.00 in
04:34 69.8 °F 63.3 °F 29.99 in WSW 3.7 mph 6.9 mph 80 % 0.00 in
04:39 69.8 °F 63.3 °F 29.99 in WSW 1.9 mph 4.6 mph 80 % 0.00 in
04:44 69.7 °F 63.3 °F 29.99 in SW 2.4 mph 5.0 mph 80 % 0.00 in
04:49 69.7 °F 63.3 °F 29.99 in SW 1.8 mph 4.6 mph 80 % 0.00 in
04:54 69.6 °F 63.2 °F 29.99 in WSW 2.2 mph 3.5 mph 80 % 0.00 in
04:59 69.5 °F 63.1 °F 29.99 in SW 1.7 mph 4.6 mph 80 % 0.00 in
05:04 69.5 °F 63.1 °F 29.99 in WSW 1.3 mph 3.5 mph 80 % 0.00 in
05:09 69.4 °F 63.0 °F 29.99 in South 1.7 mph 4.0 mph 80 % 0.00 in
05:14 69.3 °F 63.2 °F 30.00 in WSW 2.1 mph 3.5 mph 81 % 0.00 in
05:19 69.2 °F 63.1 °F 30.00 in SSW 1.8 mph 3.5 mph 81 % 0.00 in
05:24 69.2 °F 63.1 °F 30.00 in WSW 1.4 mph 3.5 mph 81 % 0.00 in
05:29 69.1 °F 63.0 °F 30.00 in SW 2.4 mph 3.5 mph 81 % 0.00 in
05:34 69.1 °F 63.0 °F 30.00 in SW 1.5 mph 3.5 mph 81 % 0.00 in
05:39 69.0 °F 62.9 °F 30.00 in Calm   1.2 mph 81 % 0.00 in
05:44 69.0 °F 62.9 °F 30.00 in WSW 1.8 mph 4.0 mph 81 % 0.00 in
05:49 69.0 °F 63.3 °F 30.00 in SSW 3.1 mph 6.9 mph 82 % 0.00 in
05:54 68.9 °F 63.2 °F 30.00 in West 2.6 mph 5.8 mph 82 % 0.00 in
05:59 68.9 °F 63.2 °F 30.01 in SW 1.7 mph 5.8 mph 82 % 0.00 in
06:04 69.0 °F 63.3 °F 30.01 in SW 1.2 mph 3.5 mph 82 % 0.00 in
06:09 69.0 °F 63.3 °F 30.01 in SW 0.3 mph 1.2 mph 82 % 0.00 in
06:14 69.1 °F 63.4 °F 30.01 in WSW 1.8 mph 3.5 mph 82 % 0.00 in
06:19 69.2 °F 63.5 °F 30.01 in SW 0.2 mph 1.2 mph 82 % 0.00 in
06:24 69.4 °F 63.3 °F 30.02 in SW 1.1 mph 3.5 mph 81 % 0.00 in
06:29 69.6 °F 63.9 °F 30.02 in Calm   1.0 mph 82 % 0.00 in
06:34 69.8 °F 64.1 °F 30.02 in WSW 1.6 mph 2.3 mph 82 % 0.00 in
06:39 70.1 °F 64.0 °F 30.02 in WSW 0.4 mph 4.0 mph 81 % 0.00 in
06:44 70.4 °F 64.3 °F 30.02 in West 0.4 mph 2.3 mph 81 % 0.00 in
06:49 70.6 °F 64.5 °F 30.02 in WSW 1.1 mph 3.5 mph 81 % 0.00 in
06:54 71.0 °F 64.5 °F 30.02 in SW 3.2 mph 3.5 mph 80 % 0.00 in
06:59 71.5 °F 64.6 °F 30.01 in WSW 1.4 mph 2.3 mph 79 % 0.00 in
07:04 71.9 °F 65.0 °F 30.01 in SSW 1.1 mph 3.0 mph 79 % 0.00 in
07:09 72.3 °F 65.1 °F 30.01 in SW 2.7 mph 3.5 mph 78 % 0.00 in
07:14 72.8 °F 65.2 °F 30.01 in WSW 1.1 mph 3.5 mph 77 % 0.00 in
07:20 73.3 °F 65.3 °F 30.02 in WNW 1.6 mph 3.0 mph 76 % 0.00 in
07:25 73.7 °F 65.7 °F 30.01 in WSW 1.5 mph 3.5 mph 76 % 0.00 in
07:30 74.2 °F 65.8 °F 30.01 in West 0.8 mph 3.0 mph 75 % 0.00 in
07:35 74.7 °F 65.9 °F 30.01 in WSW 3.5 mph 3.5 mph 74 % 0.00 in
07:39 75.1 °F 65.9 °F 30.01 in WSW 0.2 mph 2.0 mph 73 % 0.00 in
07:44 75.3 °F 66.0 °F 30.02 in SSW 1.1 mph 2.3 mph 73 % 0.00 in
07:49 75.5 °F 66.2 °F 30.02 in West 2.3 mph 3.5 mph 73 % 0.00 in
07:54 75.6 °F 66.3 °F 30.02 in SW 2.5 mph 3.5 mph 73 % 0.00 in
07:59 75.8 °F 66.5 °F 30.02 in West 1.3 mph 3.5 mph 73 % 0.00 in
08:04 75.9 °F 66.2 °F 30.02 in WSW 3.6 mph 5.8 mph 72 % 0.00 in
08:09 76.1 °F 66.0 °F 30.02 in WSW 1.9 mph 3.5 mph 71 % 0.00 in
08:14 76.3 °F 66.6 °F 30.02 in WSW 2.4 mph 4.6 mph 72 % 0.00 in
08:19 76.5 °F 66.4 °F 30.02 in SW 3.8 mph 6.9 mph 71 % 0.00 in
08:24 76.7 °F 66.6 °F 30.02 in WSW 3.0 mph 5.0 mph 71 % 0.00 in
08:29 76.9 °F 66.8 °F 30.03 in WSW 3.6 mph 6.0 mph 71 % 0.00 in
08:34 77.1 °F 66.1 °F 30.02 in WNW 2.7 mph 8.1 mph 69 % 0.00 in
08:39 77.4 °F 66.4 °F 30.02 in WNW 1.4 mph 3.5 mph 69 % 0.00 in
08:44 77.7 °F 66.7 °F 30.02 in West 1.8 mph 3.5 mph 69 % 0.00 in
08:50 77.9 °F 66.5 °F 30.02 in SW 3.1 mph 5.8 mph 68 % 0.00 in
08:55 78.1 °F 66.7 °F 30.02 in WSW 3.9 mph 8.1 mph 68 % 0.00 in
09:00 78.3 °F 66.4 °F 30.02 in SW 5.5 mph 9.2 mph 67 % 0.00 in
09:05 78.6 °F 66.3 °F 30.02 in WSW 1.9 mph 5.8 mph 66 % 0.00 in
09:10 78.8 °F 66.9 °F 30.02 in WSW 2.1 mph 4.6 mph 67 % 0.00 in
09:15 79.1 °F 67.2 °F 30.02 in WNW 2.7 mph 4.6 mph 67 % 0.00 in
09:20 79.3 °F 67.0 °F 30.02 in WSW 2.1 mph 3.5 mph 66 % 0.00 in
09:25 79.6 °F 66.8 °F 30.02 in WSW 2.4 mph 4.6 mph 65 % 0.00 in
09:35 80.3 °F 67.0 °F 30.02 in SW 1.9 mph 6.9 mph 64 % 0.00 in
09:40 80.7 °F 67.4 °F 30.02 in WNW 1.1 mph 3.5 mph 64 % 0.00 in
09:45 81.1 °F 67.8 °F 30.02 in WNW 2.3 mph 3.0 mph 64 % 0.00 in
09:50 81.6 °F 68.2 °F 30.02 in WSW 2.5 mph 3.5 mph 64 % 0.00 in
09:55 82.1 °F 67.3 °F 30.02 in WSW 4.9 mph 6.0 mph 61 % 0.00 in
10:00 82.8 °F 67.0 °F 30.02 in West 5.7 mph 10.4 mph 59 % 0.00 in
10:05 83.4 °F 67.1 °F 30.02 in WSW 1.1 mph 6.9 mph 58 % 0.00 in
10:10 84.0 °F 68.1 °F 30.02 in West 4.4 mph 5.0 mph 59 % 0.00 in
10:15 84.7 °F 67.8 °F 30.02 in WNW 6.1 mph 8.0 mph 57 % 0.00 in
10:20 85.2 °F 68.2 °F 30.02 in WSW 1.6 mph 3.0 mph 57 % 0.00 in
10:26 85.9 °F 66.8 °F 30.02 in West 6.3 mph 9.2 mph 53 % 0.00 in
10:31 86.3 °F 67.2 °F 30.02 in West 2.6 mph 9.2 mph 53 % 0.00 in
10:36 86.8 °F 68.2 °F 30.02 in NW 4.1 mph 9.2 mph 54 % 0.00 in
10:41 87.1 °F 67.3 °F 30.02 in SW 4.0 mph 5.8 mph 52 % 0.00 in
10:46 87.4 °F 68.7 °F 30.02 in WSW 1.0 mph 9.0 mph 54 % 0.00 in
10:51 87.7 °F 67.9 °F 30.01 in WSW 3.0 mph 8.0 mph 52 % 0.00 in
10:56 88.0 °F 67.6 °F 30.01 in WSW 5.0 mph 10.0 mph 51 % 0.00 in
11:01 88.4 °F 68.5 °F 30.01 in WSW 2.5 mph 6.9 mph 52 % 0.00 in
11:06 88.7 °F 67.7 °F 30.01 in West 3.5 mph 6.9 mph 50 % 0.00 in
11:11 89.1 °F 68.0 °F 30.01 in WSW 4.6 mph 7.0 mph 50 % 0.00 in
11:16 89.3 °F 67.0 °F 30.01 in WSW 6.2 mph 10.4 mph 48 % 0.00 in
11:21 89.6 °F 67.3 °F 30.01 in WNW 2.8 mph 4.6 mph 48 % 0.00 in
11:26 90.0 °F 67.7 °F 30.00 in WSW 3.9 mph 8.0 mph 48 % 0.00 in
11:31 90.3 °F 68.5 °F 30.00 in WSW 1.5 mph 3.5 mph 49 % 0.00 in
11:36 90.7 °F 67.7 °F 30.00 in West 3.4 mph 9.2 mph 47 % 0.00 in
11:41 91.0 °F 67.3 °F 30.00 in WSW 5.0 mph 9.2 mph 46 % 0.00 in
11:46 91.1 °F 67.4 °F 30.00 in WSW 5.7 mph 9.0 mph 46 % 0.00 in
11:51 91.4 °F 68.3 °F 30.00 in WNW 4.0 mph 8.1 mph 47 % 0.00 in
11:56 91.6 °F 67.9 °F 30.00 in WSW 3.0 mph 4.6 mph 46 % 0.00 in
12:01 91.7 °F 69.8 °F 30.00 in West 1.6 mph 3.0 mph 49 % 0.00 in
12:06 91.8 °F 67.4 °F 30.00 in NW 3.9 mph 4.6 mph 45 % 0.00 in
12:11 91.7 °F 66.7 °F 30.00 in WNW 3.1 mph 8.1 mph 44 % 0.00 in
12:17 91.8 °F 68.1 °F 30.00 in WNW 3.0 mph 6.9 mph 46 % 0.00 in
12:22 91.8 °F 67.4 °F 30.00 in WNW 1.0 mph 4.6 mph 45 % 0.00 in
12:27 92.0 °F 68.9 °F 30.00 in WSW 3.5 mph 8.1 mph 47 % 0.00 in
12:32 91.9 °F 67.5 °F 30.00 in SW 2.3 mph 9.2 mph 45 % 0.00 in
12:33 92.0 °F 67.6 °F 30.00 in WSW 2.7 mph 9.2 mph 45 % 0.00 in
12:38 91.9 °F 67.5 °F 30.00 in WSW 3.8 mph 7.0 mph 45 % 0.00 in
12:43 91.9 °F 68.8 °F 30.00 in WSW 2.1 mph 3.5 mph 47 % 0.00 in
12:48 92.1 °F 68.3 °F 30.00 in WSW 4.5 mph 9.2 mph 46 % 0.00 in
12:53 92.1 °F 67.1 °F 30.00 in SW 4.8 mph 6.9 mph 44 % 0.00 in
12:58 92.3 °F 67.9 °F 29.99 in SW 3.9 mph 5.8 mph 45 % 0.00 in
13:03 92.7 °F 68.9 °F 29.99 in SSW 2.6 mph 3.5 mph 46 % 0.00 in
13:08 93.1 °F 68.6 °F 29.99 in NW 4.7 mph 6.9 mph 45 % 0.00 in
13:13 93.5 °F 67.6 °F 29.98 in WSW 6.2 mph 9.2 mph 43 % 0.00 in
13:18 93.6 °F 67.7 °F 29.98 in WNW 2.5 mph 3.5 mph 43 % 0.00 in
13:23 93.8 °F 67.2 °F 29.97 in WSW 3.3 mph 6.9 mph 42 % 0.00 in
13:24 93.9 °F 68.0 °F 29.97 in SW 1.7 mph 4.6 mph 43 % 0.00 in
13:29 94.2 °F 66.9 °F 29.97 in SW 4.0 mph 5.8 mph 41 % 0.00 in
13:34 94.6 °F 67.3 °F 29.97 in SW 4.8 mph 8.0 mph 41 % 0.00 in
13:39 94.8 °F 66.0 °F 29.97 in SW 4.5 mph 10.0 mph 39 % 0.00 in
13:44 95.1 °F 67.7 °F 29.97 in WSW 0.8 mph 4.0 mph 41 % 0.00 in
13:49 95.4 °F 70.0 °F 29.97 in SSW 2.6 mph 5.0 mph 44 % 0.00 in
13:54 95.4 °F 70.0 °F 29.97 in SW 3.3 mph 8.0 mph 44 % 0.00 in
13:59 95.4 °F 70.7 °F 29.97 in SSW 0.5 mph 2.0 mph 45 % 0.00 in
14:04 95.4 °F 70.0 °F 29.97 in SW 4.7 mph 6.9 mph 44 % 0.00 in
14:09 95.2 °F 69.8 °F 29.96 in SSW 3.0 mph 5.8 mph 44 % 0.00 in
14:14 94.9 °F 69.6 °F 29.96 in South 2.0 mph 5.0 mph 44 % 0.00 in
14:19 94.6 °F 70.0 °F 29.96 in SSW 4.5 mph 7.0 mph 45 % 0.00 in
14:25 94.5 °F 68.5 °F 29.96 in SE 0.8 mph 4.6 mph 43 % 0.00 in
14:30 94.5 °F 68.5 °F 29.96 in SW 2.1 mph 5.8 mph 43 % 0.00 in
14:35 94.7 °F 68.7 °F 29.96 in SW 4.7 mph 10.4 mph 43 % 0.00 in
14:40 94.8 °F 67.4 °F 29.95 in SSW 6.3 mph 10.4 mph 41 % 0.00 in
14:45 94.8 °F 68.1 °F 29.95 in South 1.1 mph 5.0 mph 42 % 0.00 in
14:50 94.7 °F 67.3 °F 29.95 in WSW 3.7 mph 6.9 mph 41 % 0.00 in
14:55 94.8 °F 67.4 °F 29.95 in SW 2.2 mph 6.9 mph 41 % 0.00 in
15:00 94.8 °F 68.8 °F 29.95 in SSW 3.8 mph 8.0 mph 43 % 0.00 in
15:05 94.7 °F 66.6 °F 29.95 in West 8.3 mph 10.0 mph 40 % 0.00 in
15:10 94.7 °F 68.0 °F 29.95 in West 1.7 mph 6.9 mph 42 % 0.00 in
15:15 94.7 °F 67.3 °F 29.95 in WSW 1.8 mph 6.9 mph 41 % 0.00 in
15:20 94.9 °F 66.8 °F 29.95 in SSW 5.9 mph 17.3 mph 40 % 0.00 in
15:25 94.9 °F 67.5 °F 29.94 in SSW 1.9 mph 5.0 mph 41 % 0.00 in
15:30 94.8 °F 66.7 °F 29.94 in SSW 3.6 mph 5.8 mph 40 % 0.00 in
15:35 94.8 °F 68.8 °F 29.94 in SW 1.4 mph 5.0 mph 43 % 0.00 in
15:40 94.8 °F 67.4 °F 29.94 in SW 4.3 mph 6.9 mph 41 % 0.00 in
15:46 94.8 °F 66.7 °F 29.94 in SSW 2.5 mph 6.9 mph 40 % 0.00 in
15:51 94.8 °F 67.4 °F 29.94 in SSW 6.0 mph 17.0 mph 41 % 0.00 in
15:56 94.8 °F 68.1 °F 29.94 in WSW 1.4 mph 8.1 mph 42 % 0.00 in
16:01 94.8 °F 69.5 °F 29.94 in SSW 0.7 mph 3.0 mph 44 % 0.00 in
16:06 94.8 °F 68.1 °F 29.94 in SSW 5.2 mph 11.5 mph 42 % 0.00 in
16:11 94.4 °F 67.8 °F 29.94 in SSW 1.2 mph 3.5 mph 42 % 0.00 in
16:16 94.2 °F 68.3 °F 29.95 in SSE 3.1 mph 6.9 mph 43 % 0.00 in
16:21 94.1 °F 68.9 °F 29.94 in SSW 2.3 mph 4.0 mph 44 % 0.00 in
16:26 93.8 °F 67.2 °F 29.94 in WSW 3.3 mph 10.4 mph 42 % 0.00 in
16:31 93.3 °F 68.1 °F 29.95 in SSW 3.0 mph 11.5 mph 44 % 0.00 in
16:36 93.0 °F 67.9 °F 29.95 in SE 2.8 mph 5.8 mph 44 % 0.00 in
16:41 92.8 °F 67.7 °F 29.95 in SSW 3.4 mph 10.4 mph 44 % 0.00 in
16:46 92.3 °F 68.5 °F 29.95 in WNW 2.2 mph 5.0 mph 46 % 0.00 in
16:51 92.1 °F 68.3 °F 29.95 in SSE 2.1 mph 4.6 mph 46 % 0.00 in
16:56 91.9 °F 68.2 °F 29.95 in WSW 1.6 mph 7.0 mph 46 % 0.00 in
17:01 91.5 °F 67.8 °F 29.95 in SSW 1.2 mph 5.8 mph 46 % 0.00 in
17:06 91.2 °F 67.5 °F 29.94 in SW 3.8 mph 10.4 mph 46 % 0.00 in
17:11 90.8 °F 67.2 °F 29.94 in SSW 3.4 mph 5.8 mph 46 % 0.00 in
17:16 90.4 °F 66.8 °F 29.94 in SW 1.8 mph 4.0 mph 46 % 0.00 in
17:21 90.1 °F 67.8 °F 29.94 in SW 2.3 mph 7.0 mph 48 % 0.00 in
17:31 89.2 °F 68.1 °F 29.94 in SW 1.5 mph 3.5 mph 50 % 0.00 in
17:36 88.7 °F 67.1 °F 29.94 in SSW 2.4 mph 4.6 mph 49 % 0.00 in
17:41 88.3 °F 67.3 °F 29.93 in WSW 1.9 mph 3.5 mph 50 % 0.00 in
17:46 88.0 °F 68.2 °F 29.93 in SSW 1.7 mph 3.5 mph 52 % 0.00 in
17:51 87.6 °F 67.8 °F 29.93 in SSE 0.6 mph 2.3 mph 52 % 0.00 in
17:57 87.2 °F 67.4 °F 29.93 in South 0.8 mph 3.5 mph 52 % 0.00 in
18:02 86.8 °F 67.6 °F 29.92 in SSW 0.9 mph 4.6 mph 53 % 0.00 in
18:07 86.5 °F 67.9 °F 29.92 in SW 0.9 mph 3.5 mph 54 % 0.00 in
18:12 86.2 °F 67.6 °F 29.93 in West 2.0 mph 4.6 mph 54 % 0.00 in
18:17 85.9 °F 67.3 °F 29.93 in SSE 2.4 mph 4.6 mph 54 % 0.00 in
18:22 85.6 °F 67.0 °F 29.93 in WSW 2.6 mph 3.5 mph 54 % 0.00 in
18:27 85.4 °F 66.9 °F 29.93 in WSW 2.8 mph 8.0 mph 54 % 0.00 in
18:32 85.2 °F 67.2 °F 29.93 in South 1.9 mph 3.5 mph 55 % 0.00 in
18:37 85.1 °F 67.1 °F 29.92 in SSW 0.9 mph 3.5 mph 55 % 0.00 in
18:42 85.0 °F 67.0 °F 29.92 in SSE 0.2 mph 2.3 mph 55 % 0.00 in
18:47 84.9 °F 67.5 °F 29.92 in SW 0.7 mph 3.0 mph 56 % 0.00 in
18:52 84.8 °F 67.4 °F 29.92 in SSW 0.2 mph 3.5 mph 56 % 0.00 in
18:57 84.7 °F 67.3 °F 29.92 in SW 0.7 mph 2.3 mph 56 % 0.00 in
19:02 84.6 °F 67.7 °F 29.92 in SE 0.7 mph 3.5 mph 57 % 0.00 in
19:07 84.4 °F 67.5 °F 29.93 in SW 0.5 mph 2.3 mph 57 % 0.00 in
19:12 84.3 °F 67.4 °F 29.93 in SW 0.4 mph 1.2 mph 57 % 0.00 in
19:17 84.2 °F 67.3 °F 29.92 in SW 0.1 mph 1.2 mph 57 % 0.00 in
19:22 84.1 °F 67.7 °F 29.92 in Calm   1.2 mph 58 % 0.00 in
19:27 84.0 °F 67.6 °F 29.93 in SW 1.7 mph 3.0 mph 58 % 0.00 in
19:32 83.8 °F 66.9 °F 29.93 in Calm   1.2 mph 57 % 0.00 in
19:37 83.8 °F 66.9 °F 29.93 in WSW 1.2 mph 3.5 mph 57 % 0.00 in
19:42 83.6 °F 66.8 °F 29.93 in WSW 0.1 mph 3.5 mph 57 % 0.00 in
19:47 83.5 °F 66.7 °F 29.93 in WSW 0.3 mph 2.3 mph 57 % 0.00 in
19:52 83.4 °F 66.6 °F 29.93 in Calm     57 % 0.00 in
19:57 83.2 °F 66.9 °F 29.93 in WSW 0.1 mph 1.2 mph 58 % 0.00 in
20:02 83.0 °F 67.2 °F 29.93 in Calm     59 % 0.00 in
20:07 82.8 °F 67.0 °F 29.93 in WSW 0.4 mph 1.2 mph 59 % 0.00 in
20:12 82.5 °F 66.7 °F 29.93 in Calm     59 % 0.00 in
20:17 82.2 °F 66.4 °F 29.93 in Calm     59 % 0.00 in
20:23 82.0 °F 66.7 °F 29.93 in WSW 1.2 mph 2.3 mph 60 % 0.00 in
20:28 81.7 °F 66.5 °F 29.93 in WSW 0.3 mph 1.2 mph 60 % 0.00 in
20:33 81.5 °F 66.3 °F 29.93 in WSW 0.7 mph 1.2 mph 60 % 0.00 in
20:38 81.2 °F 66.5 °F 29.93 in WSW 0.2 mph 1.2 mph 61 % 0.00 in
20:43 80.9 °F 66.2 °F 29.93 in WSW 0.1 mph 1.2 mph 61 % 0.00 in
20:48 80.6 °F 65.9 °F 29.94 in WSW 0.1 mph 2.0 mph 61 % 0.00 in
20:53 80.3 °F 66.1 °F 29.93 in WSW 0.8 mph 2.3 mph 62 % 0.00 in
20:58 80.1 °F 65.4 °F 29.93 in WSW 0.4 mph 1.2 mph 61 % 0.00 in
21:03 79.8 °F 65.6 °F 29.93 in Calm   2.3 mph 62 % 0.00 in
21:08 79.6 °F 65.9 °F 29.94 in Calm     63 % 0.00 in
21:13 79.3 °F 65.6 °F 29.94 in Calm     63 % 0.00 in
21:18 79.1 °F 65.4 °F 29.94 in Calm   1.2 mph 63 % 0.00 in
21:23 78.9 °F 65.7 °F 29.95 in Calm     64 % 0.00 in
21:28 78.7 °F 65.5 °F 29.95 in Calm     64 % 0.00 in
21:33 78.5 °F 65.8 °F 29.95 in Calm     65 % 0.00 in
21:38 78.2 °F 65.5 °F 29.94 in Calm     65 % 0.00 in
21:43 78.0 °F 65.3 °F 29.95 in Calm     65 % 0.00 in
21:48 77.7 °F 65.4 °F 29.95 in Calm     66 % 0.00 in
21:53 77.5 °F 65.7 °F 29.95 in Calm     67 % 0.00 in
21:58 77.3 °F 65.5 °F 29.95 in Calm     67 % 0.00 in
22:03 77.0 °F 65.2 °F 29.95 in Calm     67 % 0.00 in
22:08 76.7 °F 64.9 °F 29.95 in Calm   1.0 mph 67 % 0.00 in
22:13 76.5 °F 65.1 °F 29.95 in Calm     68 % 0.00 in
22:18 76.3 °F 65.0 °F 29.95 in WSW 0.1 mph 1.2 mph 68 % 0.00 in
22:23 76.0 °F 65.1 °F 29.95 in Calm   1.2 mph 69 % 0.00 in
22:28 75.8 °F 64.9 °F 29.95 in WSW 0.9 mph 2.3 mph 69 % 0.00 in
22:33 75.6 °F 64.7 °F 29.95 in Calm     69 % 0.00 in
22:38 75.5 °F 65.0 °F 29.95 in Calm     70 % 0.00 in
22:43 75.3 °F 64.8 °F 29.95 in Calm   1.2 mph 70 % 0.00 in
22:44 75.2 °F 64.7 °F 29.95 in WSW 0.1 mph 1.2 mph 70 % 0.00 in
22:49 75.1 °F 64.6 °F 29.95 in Calm     70 % 0.00 in
22:54 74.9 °F 64.9 °F 29.95 in Calm     71 % 0.00 in
22:59 74.8 °F 64.8 °F 29.95 in Calm     71 % 0.00 in
23:04 74.7 °F 64.7 °F 29.95 in WSW 0.4 mph 1.2 mph 71 % 0.00 in
23:09 74.6 °F 64.6 °F 29.95 in Calm   2.3 mph 71 % 0.00 in
23:14 74.5 °F 64.9 °F 29.95 in WSW 1.2 mph 3.5 mph 72 % 0.00 in
23:19 74.5 °F 64.9 °F 29.95 in WSW 1.8 mph 3.5 mph 72 % 0.00 in
23:24 74.5 °F 64.9 °F 29.95 in West 0.6 mph 3.0 mph 72 % 0.00 in
23:29 74.6 °F 65.4 °F 29.95 in SSW 0.9 mph 3.0 mph 73 % 0.00 in
23:34 74.7 °F 65.1 °F 29.95 in WSW 3.9 mph 5.0 mph 72 % 0.00 in
23:39 74.8 °F 65.2 °F 29.95 in SW 1.7 mph 3.5 mph 72 % 0.00 in
23:44 75.0 °F 65.4 °F 29.95 in SW 0.3 mph 1.2 mph 72 % 0.00 in
23:49 75.1 °F 65.1 °F 29.95 in SW 0.3 mph 3.5 mph 71 % 0.00 in
23:54 75.2 °F 65.1 °F 29.95 in Calm     71 % 0.00 in
23:59 75.3 °F 65.2 °F 29.95 in SW 0.6 mph 1.2 mph 71 % 0.00 in
Crab Meadow Weather
Compliments of Weather Underground - 3 mb

Script developed by  Jim McMurry - jmcmurry@mwt.net Adapted for the template by  Wim van der Kuil - Leuven-Template.eu

Hurricanes: In one day a hurricane can release enough energy to supply all of the nation's electrical needs for about six months.